createdAt,value
2023-04-25T00:00:07.987Z,1.85
2023-04-25T00:03:15.122Z,1.50
2023-04-25T00:06:18.779Z,1.50
2023-04-25T00:09:21.164Z,1.25
2023-04-25T00:12:23.942Z,1.40
2023-04-25T00:15:26.171Z,1.58
2023-04-25T00:18:29.933Z,1.10
2023-04-25T00:21:34.955Z,1.27
2023-04-25T00:24:37.343Z,1.67
2023-04-25T00:27:40.295Z,1.60
2023-04-25T00:30:44.101Z,1.77
2023-04-25T00:33:46.511Z,1.50
2023-04-25T00:36:48.867Z,2.08
2023-04-25T00:39:51.834Z,1.90
2023-04-25T00:42:54.794Z,1.70
2023-04-25T00:45:58.703Z,2.00
2023-04-25T00:49:01.004Z,1.80
2023-04-25T00:52:03.431Z,1.92
2023-04-25T00:55:06.448Z,2.13
2023-04-25T00:58:08.819Z,1.95
2023-04-25T01:01:12.213Z,2.00
2023-04-25T01:04:15.170Z,2.23
2023-04-25T01:07:18.180Z,2.50
2023-04-25T01:10:20.406Z,2.20
2023-04-25T01:13:22.752Z,2.75
2023-04-25T01:16:26.465Z,2.40
2023-04-25T01:19:29.092Z,2.10
2023-04-25T01:22:31.873Z,2.70
2023-04-25T01:25:35.001Z,2.05
2023-04-25T01:28:37.916Z,2.42
2023-04-25T01:31:41.715Z,2.50
2023-04-25T01:34:44.222Z,2.73
2023-04-25T01:37:46.624Z,2.70
2023-04-25T01:40:51.799Z,2.72
2023-04-25T01:43:55.756Z,2.60
2023-04-25T01:46:58.246Z,2.90
2023-04-25T01:50:03.626Z,3.00
2023-04-25T01:53:07.526Z,2.97
2023-04-25T01:56:09.873Z,2.90
2023-04-25T01:59:12.663Z,2.60
2023-04-25T02:02:28.728Z,2.88
2023-04-25T02:05:36.708Z,2.70
2023-04-25T02:08:40.680Z,2.40
2023-04-25T02:11:43.125Z,2.50
2023-04-25T02:15:11.799Z,2.42
2023-04-25T02:18:23.603Z,2.45
2023-04-25T02:21:27.053Z,2.43
2023-04-25T02:24:29.454Z,2.20
2023-04-25T02:27:32.711Z,2.40
2023-04-25T02:30:36.391Z,2.58
2023-04-25T02:33:41.010Z,2.20
2023-04-25T02:36:43.323Z,2.17
2023-04-25T02:39:45.764Z,2.20
2023-04-25T02:42:48.546Z,1.60
2023-04-25T02:45:50.839Z,1.77
2023-04-25T02:48:54.137Z,1.50
2023-04-25T02:51:56.454Z,1.30
2023-04-25T02:54:58.870Z,1.20
2023-04-25T02:58:02.439Z,1.55
2023-04-25T03:01:25.107Z,1.50
2023-04-25T03:04:27.939Z,1.60
2023-04-25T03:07:30.953Z,1.50
2023-04-25T03:10:33.340Z,1.58
2023-04-25T03:13:40.074Z,2.00
2023-04-25T03:16:43.594Z,2.50
2023-04-25T03:19:45.933Z,2.60
2023-04-25T03:22:48.437Z,2.23
2023-04-25T03:25:50.848Z,2.83
2023-04-25T03:28:53.256Z,2.97
2023-04-25T03:31:55.689Z,2.47
2023-04-25T03:34:58.039Z,2.28
2023-04-25T03:38:02.060Z,2.53
2023-04-25T03:41:09.418Z,1.80
2023-04-25T03:44:18.768Z,2.30
2023-04-25T03:47:21.228Z,2.90
2023-04-25T03:50:25.116Z,2.40
2023-04-25T03:53:27.467Z,2.53
2023-04-25T03:56:58.573Z,2.03
2023-04-25T04:00:05.237Z,2.38
2023-04-25T04:03:15.792Z,2.88
2023-04-25T04:06:18.422Z,3.50
2023-04-25T04:09:25.141Z,2.20
2023-04-25T04:12:27.723Z,2.45
2023-04-25T04:15:30.330Z,2.63
2023-04-25T04:18:34.230Z,1.98
2023-04-25T04:21:37.788Z,2.67
2023-04-25T04:24:40.671Z,2.70
2023-04-25T04:27:45.926Z,2.50
2023-04-25T04:31:11.988Z,3.20
2023-04-25T04:34:14.350Z,4.18
2023-04-25T04:37:17.214Z,4.30
2023-04-25T04:40:19.890Z,3.50
2023-04-25T04:43:29.628Z,3.28
2023-04-25T04:46:43.475Z,3.90
2023-04-25T04:49:49.224Z,3.05
2023-04-25T04:53:07.098Z,2.70
2023-04-25T04:56:29.228Z,2.70
2023-04-25T04:59:52.526Z,2.63
2023-04-25T05:03:17.987Z,2.30
2023-04-25T05:06:37.872Z,2.10
2023-04-25T05:10:00.076Z,3.08
2023-04-25T05:13:11.182Z,3.17
2023-04-25T05:16:33.251Z,3.05
2023-04-25T05:19:58.484Z,3.78
2023-04-25T05:23:10.856Z,3.42
2023-04-25T05:26:32.880Z,3.80
2023-04-25T05:30:05.948Z,4.07
2023-04-25T05:33:23.210Z,3.40
2023-04-25T05:36:25.743Z,3.30
2023-04-25T05:39:28.604Z,3.38
2023-04-25T05:42:48.555Z,2.78
2023-04-25T05:46:19.588Z,3.53
2023-04-25T05:49:41.792Z,3.10
2023-04-25T05:53:06.999Z,3.35
2023-04-25T05:56:15.614Z,4.10
2023-04-25T05:59:18.012Z,3.70
2023-04-25T06:02:22.635Z,4.03
2023-04-25T06:05:26.422Z,2.97
2023-04-25T06:08:28.827Z,3.28
2023-04-25T06:11:31.317Z,4.35
2023-04-25T06:14:37.223Z,4.63
2023-04-25T06:17:39.576Z,4.47
2023-04-25T06:20:42.511Z,4.32
2023-04-25T06:23:44.963Z,4.70
2023-04-25T06:26:54.237Z,4.65
2023-04-25T06:29:57.101Z,4.32
2023-04-25T06:32:59.537Z,4.40
2023-04-25T06:36:05.258Z,5.32
2023-04-25T06:39:08.846Z,4.70
2023-04-25T06:42:11.328Z,5.32
2023-04-25T06:45:22.496Z,4.60
2023-04-25T06:48:27.947Z,4.67
2023-04-25T06:51:31.806Z,6.43
2023-04-25T06:54:35.288Z,5.50
2023-04-25T06:57:46.722Z,3.47
2023-04-25T07:01:10.298Z,3.40
2023-04-25T07:04:13.376Z,3.30
2023-04-25T07:07:21.908Z,2.63
2023-04-25T07:10:31.218Z,3.60
2023-04-25T07:13:33.746Z,4.95
2023-04-25T07:16:36.668Z,7.00
2023-04-25T07:19:41.042Z,5.20
2023-04-25T07:22:45.085Z,4.72
2023-04-25T07:25:47.899Z,5.55
2023-04-25T07:28:55.762Z,6.35
2023-04-25T07:31:58.206Z,4.05
2023-04-25T07:35:00.594Z,3.47
2023-04-25T07:38:04.334Z,9.05
2023-04-25T07:41:06.716Z,6.47
2023-04-25T07:44:09.318Z,4.28
2023-04-25T07:47:12.202Z,4.55
2023-04-25T07:50:14.684Z,4.53
2023-04-25T07:53:18.603Z,7.55
2023-04-25T07:56:45.170Z,4.68
2023-04-25T07:59:54.424Z,5.53
2023-04-25T08:02:58.175Z,4.43
2023-04-25T08:06:02.704Z,5.33
2023-04-25T08:09:12.199Z,4.03
2023-04-25T08:12:17.166Z,3.03
2023-04-25T08:15:19.676Z,3.40
2023-04-25T08:18:23.405Z,3.30
2023-04-25T08:21:28.076Z,2.73
2023-04-25T08:24:32.865Z,2.75
2023-04-25T08:27:35.943Z,2.80
2023-04-25T08:30:38.323Z,2.67
2023-04-25T08:33:41.931Z,2.70
2023-04-25T08:37:08.657Z,2.57
2023-04-25T08:40:31.050Z,2.33
2023-04-25T08:43:42.586Z,2.50
2023-04-25T08:46:51.113Z,1.70
2023-04-25T08:50:05.132Z,2.60
2023-04-25T08:53:11.496Z,3.17
2023-04-25T08:56:18.572Z,3.22
2023-04-25T08:59:21.713Z,2.38
2023-04-25T09:02:25.984Z,3.10
2023-04-25T09:05:29.835Z,3.33
2023-04-25T09:08:32.426Z,3.80
2023-04-25T09:11:37.111Z,2.60
2023-04-25T09:15:06.541Z,2.40
2023-04-25T09:18:33.293Z,2.08
2023-04-25T09:21:37.274Z,2.10
2023-04-25T09:24:44.675Z,2.77
2023-04-25T09:27:56.822Z,2.40
2023-04-25T09:31:12.048Z,2.80
2023-04-25T09:34:21.548Z,2.20
2023-04-25T09:37:31.471Z,2.22
2023-04-25T09:40:53.244Z,2.50
2023-04-25T09:44:04.629Z,2.00
2023-04-25T09:47:13.708Z,2.00
2023-04-25T09:50:18.557Z,1.60
2023-04-25T09:53:24.677Z,1.73
2023-04-25T09:56:43.030Z,1.50
2023-04-25T09:59:51.677Z,1.70
2023-04-25T10:02:55.424Z,1.15
2023-04-25T10:06:28.504Z,1.20
2023-04-25T10:09:35.002Z,1.70
2023-04-25T10:12:37.759Z,1.60
2023-04-25T10:15:40.579Z,1.40
2023-04-25T10:18:43.055Z,1.65
2023-04-25T10:21:53.370Z,1.15
2023-04-25T10:24:57.539Z,1.52
2023-04-25T10:28:00.974Z,1.10
2023-04-25T10:31:05.426Z,0.77
2023-04-25T10:34:07.871Z,0.90
2023-04-25T10:37:13.820Z,0.73
2023-04-25T10:40:23.033Z,0.55
2023-04-25T10:43:46.575Z,0.70
2023-04-25T10:46:49.103Z,0.90
2023-04-25T10:49:52.019Z,0.70
2023-04-25T10:52:54.719Z,0.80
2023-04-25T10:55:57.016Z,0.80
2023-04-25T10:59:25.502Z,0.80
2023-04-25T11:02:30.285Z,0.60
2023-04-25T11:05:36.295Z,1.10
2023-04-25T11:08:51.274Z,0.60
2023-04-25T11:11:56.036Z,0.40
2023-04-25T11:15:02.977Z,0.50
2023-04-25T11:18:05.405Z,0.50
2023-04-25T11:21:07.884Z,0.60
2023-04-25T11:24:11.040Z,0.50
2023-04-25T11:27:13.509Z,0.32
2023-04-25T11:30:17.134Z,0.33
2023-04-25T11:33:23.896Z,0.40
2023-04-25T11:36:27.105Z,0.20
2023-04-25T11:39:30.137Z,0.40
2023-04-25T11:42:32.482Z,0.30
2023-04-25T11:45:34.827Z,0.60
2023-04-25T11:48:44.010Z,0.40
2023-04-25T11:51:48.952Z,0.57
2023-04-25T11:54:51.314Z,0.20
2023-04-25T11:57:53.831Z,0.25
2023-04-25T12:01:00.562Z,0.33
2023-04-25T12:04:17.708Z,0.30
2023-04-25T12:07:22.869Z,0.20
2023-04-25T12:10:26.752Z,0.30
2023-04-25T12:13:29.702Z,0.40
2023-04-25T12:16:45.068Z,0.50
2023-04-25T12:19:48.264Z,0.28
2023-04-25T12:22:51.544Z,0.50
2023-04-25T12:25:53.916Z,0.50
2023-04-25T12:28:56.487Z,0.50
2023-04-25T12:31:59.801Z,0.90
2023-04-25T12:35:02.595Z,0.80
2023-04-25T12:38:05.001Z,0.60
2023-04-25T12:41:08.408Z,0.73
2023-04-25T12:44:11.131Z,0.95
2023-04-25T12:47:13.556Z,1.13
2023-04-25T12:50:16.314Z,0.77
2023-04-25T12:53:20.132Z,0.60
2023-04-25T12:56:24.550Z,0.70
2023-04-25T12:59:27.885Z,0.57
2023-04-25T13:02:30.316Z,1.30
2023-04-25T13:05:33.838Z,1.17
2023-04-25T13:08:37.854Z,0.80
2023-04-25T13:11:40.162Z,0.60
2023-04-25T13:14:42.504Z,0.60
2023-04-25T13:17:45.017Z,0.80
2023-04-25T13:20:47.486Z,1.00
2023-04-25T13:23:50.163Z,0.77
2023-04-25T13:26:52.757Z,0.85
2023-04-25T13:29:55.101Z,0.85
2023-04-25T13:32:58.387Z,0.80
2023-04-25T13:36:02.548Z,0.95
2023-04-25T13:39:06.045Z,1.00
2023-04-25T13:42:08.373Z,0.90
2023-04-25T13:45:12.380Z,0.65
2023-04-25T13:48:14.655Z,1.00
2023-04-25T13:51:18.594Z,1.00
2023-04-25T13:54:20.947Z,0.80
2023-04-25T13:57:23.477Z,1.00
2023-04-25T14:00:25.958Z,0.70
2023-04-25T14:03:28.714Z,1.00
2023-04-25T14:06:32.582Z,1.10
2023-04-25T14:09:35.303Z,1.30
2023-04-25T14:12:37.728Z,1.40
2023-04-25T14:15:40.243Z,1.00
2023-04-25T14:18:43.039Z,1.10
2023-04-25T14:21:45.637Z,1.25
2023-04-25T14:24:47.928Z,1.05
2023-04-25T14:27:53.389Z,1.13
2023-04-25T14:30:55.828Z,1.10
2023-04-25T14:33:59.616Z,1.23
2023-04-25T14:37:02.261Z,1.55
2023-04-25T14:40:06.262Z,1.02
2023-04-25T14:43:08.612Z,1.10
2023-04-25T14:46:12.420Z,0.90
2023-04-25T14:49:14.765Z,0.97
2023-04-25T14:52:17.086Z,0.90
2023-04-25T14:55:19.583Z,1.00
2023-04-25T14:58:22.514Z,1.20
2023-04-25T15:01:25.162Z,1.40
2023-04-25T15:04:27.962Z,1.00
2023-04-25T15:07:31.022Z,1.08
2023-04-25T15:10:33.696Z,1.00
2023-04-25T15:13:37.507Z,1.20
2023-04-25T15:16:40.060Z,1.08
2023-04-25T15:19:42.738Z,1.00
2023-04-25T15:22:50.076Z,1.15
2023-04-25T15:25:53.811Z,1.10
2023-04-25T15:28:56.413Z,1.08
2023-04-25T15:31:59.013Z,1.33
2023-04-25T15:35:07.405Z,1.07
2023-04-25T15:38:11.417Z,1.30
2023-04-25T15:41:13.843Z,1.25
2023-04-25T15:44:16.542Z,1.40
2023-04-25T15:47:18.828Z,1.63
2023-04-25T15:50:21.492Z,1.17
2023-04-25T15:53:23.870Z,0.88
2023-04-25T15:56:26.219Z,1.60
2023-04-25T15:59:28.517Z,1.70
2023-04-25T16:02:31.599Z,2.33
2023-04-25T16:05:33.952Z,2.87
2023-04-25T16:08:38.580Z,2.20
2023-04-25T16:11:41.858Z,2.60
2023-04-25T16:14:44.252Z,2.40
2023-04-25T16:17:46.775Z,2.53
2023-04-25T16:20:49.151Z,2.53
2023-04-25T16:23:51.683Z,2.42
2023-04-25T16:26:54.210Z,2.58
2023-04-25T16:29:56.517Z,3.00
2023-04-25T16:33:00.647Z,3.85
2023-04-25T16:36:03.046Z,2.60
2023-04-25T16:39:08.474Z,2.70
2023-04-25T16:42:10.926Z,2.53
2023-04-25T16:45:14.359Z,2.45
2023-04-25T16:48:19.320Z,2.80
2023-04-25T16:51:21.682Z,2.97
2023-04-25T16:54:25.620Z,3.22
2023-04-25T16:57:27.868Z,2.80
2023-04-25T17:00:30.321Z,2.70
2023-04-25T17:03:34.012Z,2.83
2023-04-25T17:06:38.144Z,2.83
2023-04-25T17:09:41.030Z,3.10
2023-04-25T17:12:43.472Z,3.00
2023-04-25T17:15:45.925Z,2.90
2023-04-25T17:18:48.573Z,3.22
2023-04-25T17:21:51.008Z,2.80
2023-04-25T17:24:54.196Z,3.20
2023-04-25T17:27:56.591Z,2.25
2023-04-25T17:30:58.985Z,2.30
2023-04-25T17:34:01.624Z,2.60
2023-04-25T17:37:03.924Z,2.60
2023-04-25T17:40:08.877Z,2.78
2023-04-25T17:43:11.297Z,2.50
2023-04-25T17:46:13.568Z,2.20
2023-04-25T17:49:16.149Z,4.07
2023-04-25T17:52:18.500Z,2.50
2023-04-25T17:55:20.928Z,2.42
2023-04-25T17:58:23.375Z,2.50
2023-04-25T18:01:26.003Z,2.65
2023-04-25T18:04:28.398Z,2.22
2023-04-25T18:07:30.923Z,2.43
2023-04-25T18:10:34.324Z,2.90
2023-04-25T18:13:37.256Z,2.90
2023-04-25T18:16:47.102Z,2.22
2023-04-25T18:19:50.509Z,2.30
2023-04-25T18:22:52.997Z,2.47
2023-04-25T18:25:55.551Z,2.70
2023-04-25T18:28:57.800Z,2.90
2023-04-25T18:32:00.387Z,2.60
2023-04-25T18:35:03.731Z,3.53
2023-04-25T18:38:06.151Z,3.43
2023-04-25T18:41:30.771Z,3.05
2023-04-25T18:44:33.807Z,3.15
2023-04-25T18:47:36.311Z,3.42
2023-04-25T18:50:38.984Z,3.10
2023-04-25T18:53:41.556Z,3.20
2023-04-25T18:56:43.799Z,2.90
2023-04-25T18:59:46.383Z,3.10
2023-04-25T19:02:50.155Z,2.92
2023-04-25T19:05:52.698Z,2.90
2023-04-25T19:08:56.422Z,2.70
2023-04-25T19:11:58.689Z,2.35
2023-04-25T19:15:02.347Z,2.95
2023-04-25T19:18:04.917Z,2.22
2023-04-25T19:21:08.523Z,3.03
2023-04-25T19:24:11.488Z,2.90
2023-04-25T19:27:14.153Z,3.90
2023-04-25T19:30:16.548Z,3.38
2023-04-25T19:33:19.745Z,2.72
2023-04-25T19:36:22.969Z,2.53
2023-04-25T19:39:25.445Z,2.20
2023-04-25T19:42:27.851Z,2.50
2023-04-25T19:45:33.160Z,3.15
2023-04-25T19:48:35.808Z,2.42
2023-04-25T19:51:38.176Z,2.42
2023-04-25T19:54:45.197Z,2.37
2023-04-25T19:57:47.545Z,2.30
2023-04-25T20:00:51.941Z,2.85
2023-04-25T20:03:54.537Z,2.55
2023-04-25T20:06:59.045Z,2.53
2023-04-25T20:10:06.674Z,2.40
2023-04-25T20:13:08.896Z,2.50
2023-04-25T20:16:11.814Z,2.70
2023-04-25T20:19:14.386Z,2.50
2023-04-25T20:22:16.732Z,2.40
2023-04-25T20:25:19.442Z,2.40
2023-04-25T20:28:23.249Z,2.42
2023-04-25T20:31:25.762Z,2.75
2023-04-25T20:34:30.840Z,2.67
2023-04-25T20:37:33.725Z,2.25
2023-04-25T20:40:36.645Z,2.87
2023-04-25T20:43:40.404Z,2.80
2023-04-25T20:46:42.716Z,2.83
2023-04-25T20:49:44.927Z,2.55
2023-04-25T20:52:47.691Z,2.88
2023-04-25T20:55:50.068Z,3.00
2023-04-25T20:58:53.105Z,2.80
2023-04-25T21:01:56.638Z,2.60
2023-04-25T21:04:58.969Z,3.22
2023-04-25T21:08:01.320Z,2.90
2023-04-25T21:11:04.189Z,2.90
2023-04-25T21:14:07.499Z,2.60
2023-04-25T21:17:09.885Z,2.72
2023-04-25T21:20:12.609Z,2.90
2023-04-25T21:23:14.955Z,3.00
2023-04-25T21:26:17.236Z,2.83
2023-04-25T21:29:20.046Z,2.78
2023-04-25T21:32:22.369Z,3.03
2023-04-25T21:35:25.144Z,2.50
2023-04-25T21:38:27.582Z,2.88
2023-04-25T21:41:30.970Z,3.40
2023-04-25T21:44:33.354Z,3.10
2023-04-25T21:47:36.421Z,2.75
2023-04-25T21:50:38.831Z,3.08
2023-04-25T21:53:42.285Z,3.10
2023-04-25T21:56:44.613Z,2.90
2023-04-25T21:59:46.912Z,3.22
2023-04-25T22:02:49.436Z,2.88
2023-04-25T22:05:51.949Z,3.08
2023-04-25T22:08:54.724Z,2.83
2023-04-25T22:11:58.741Z,3.47
2023-04-25T22:15:01.129Z,3.60
2023-04-25T22:18:04.358Z,3.47
2023-04-25T22:21:06.602Z,2.83
2023-04-25T22:24:08.948Z,3.38
2023-04-25T22:27:11.266Z,3.10
2023-04-25T22:30:13.924Z,3.33
2023-04-25T22:33:16.285Z,3.60
2023-04-25T22:36:19.655Z,3.45
2023-04-25T22:39:22.084Z,3.40
2023-04-25T22:42:24.708Z,3.80
2023-04-25T22:45:27.579Z,3.97
2023-04-25T22:48:29.980Z,3.78
2023-04-25T22:51:33.247Z,3.72
2023-04-25T22:54:36.301Z,3.85
2023-04-25T22:57:38.952Z,4.10
2023-04-25T23:00:41.446Z,4.22
2023-04-25T23:03:44.030Z,4.10
2023-04-25T23:06:46.516Z,3.97
2023-04-25T23:09:49.370Z,3.88
2023-04-25T23:12:52.070Z,3.73
2023-04-25T23:15:54.286Z,4.43
2023-04-25T23:18:56.620Z,3.85
2023-04-25T23:21:59.110Z,4.20
2023-04-25T23:25:02.026Z,4.22
2023-04-25T23:28:04.410Z,4.03
2023-04-25T23:31:08.333Z,4.03
2023-04-25T23:34:10.807Z,4.25
2023-04-25T23:37:13.080Z,3.92
2023-04-25T23:40:15.405Z,3.90
2023-04-25T23:43:17.811Z,4.10
2023-04-25T23:46:20.131Z,4.03
2023-04-25T23:49:22.697Z,4.20
2023-04-25T23:52:25.148Z,4.00
2023-04-25T23:55:27.531Z,4.10
2023-04-25T23:58:30.325Z,4.40
